Time;durP1;ratioP1;P1;durP2;ratioP2;P2;SDS_P1;SDS_P2;PMS_P1;PMS_P2;Temp;Humidity;BMP_temperature;BMP_pressure;BME280_temperature;BME280_humidity;BME280_pressure;Samples;Min_cycle;Max_cycle;Signal;HPM_P1;HPM_P2
2022/06/10 00:00:19;;;;;;;3.67;2.70;;;13.70;99.90;;;;;;5005478;28;20196;-74
2022/06/10 00:03:05;;;;;;;5.03;2.57;;;13.60;99.90;;;;;;5012445;28;20219;-74
2022/06/10 00:05:50;;;;;;;4.83;2.80;;;13.60;99.90;;;;;;5006700;28;20238;-74
2022/06/10 00:08:39;;;;;;;5.80;2.87;;;13.50;99.90;;;;;;5007462;28;20277;-74
2022/06/10 00:11:23;;;;;;;6.13;2.90;;;13.50;99.90;;;;;;5002065;28;20184;-74
2022/06/10 00:14:08;;;;;;;6.63;2.70;;;13.40;99.90;;;;;;5018068;28;20216;-74
2022/06/10 00:16:52;;;;;;;7.20;2.90;;;13.40;99.90;;;;;;5001436;28;20184;-74
2022/06/10 00:19:36;;;;;;;6.17;2.83;;;13.40;99.90;;;;;;5006116;28;20243;-74
2022/06/10 00:22:20;;;;;;;6.57;2.70;;;13.30;99.90;;;;;;5007304;28;20220;-74
2022/06/10 00:25:05;;;;;;;6.20;2.40;;;13.30;99.90;;;;;;5008651;28;20251;-74
2022/06/10 00:27:51;;;;;;;7.27;3.20;;;13.30;99.90;;;;;;5015904;28;20825;-74
2022/06/10 00:30:36;;;;;;;6.20;3.10;;;13.20;99.90;;;;;;5009598;28;20196;-74
2022/06/10 00:33:20;;;;;;;8.63;2.70;;;13.20;99.90;;;;;;5012501;28;20212;-74
2022/06/10 00:36:04;;;;;;;5.27;2.63;;;13.20;99.90;;;;;;5007629;28;20203;-74
2022/06/10 00:38:48;;;;;;;6.60;2.63;;;13.10;99.90;;;;;;5025764;28;20275;-73
2022/06/10 00:41:33;;;;;;;4.53;2.30;;;13.10;99.90;;;;;;5010749;28;20195;-74
2022/06/10 00:44:30;;;;;;;6.37;2.47;;;13.10;99.90;;;;;;5008983;28;20191;-74
2022/06/10 00:47:41;;;;;;;4.73;2.80;;;13.10;99.90;;;;;;5006657;28;20250;-73
2022/06/10 00:50:30;;;;;;;5.33;2.60;;;13.10;99.90;;;;;;4998205;28;20240;-74
2022/06/10 00:53:17;;;;;;;8.43;2.80;;;13.00;99.90;;;;;;5012550;28;20361;-74
2022/06/10 00:56:09;;;;;;;5.63;2.60;;;13.00;99.90;;;;;;5000126;28;20192;-74
2022/06/10 00:59:01;;;;;;;8.40;2.90;;;12.90;99.90;;;;;;5010488;28;20208;-74
2022/06/10 01:01:45;;;;;;;7.67;2.70;;;12.90;99.90;;;;;;5007885;28;20291;-73
2022/06/10 01:04:29;;;;;;;8.33;2.83;;;12.90;99.90;;;;;;5016368;28;20188;-74
2022/06/10 01:07:18;;;;;;;5.03;2.47;;;12.90;99.90;;;;;;5009096;28;20180;-74
2022/06/10 01:10:06;;;;;;;6.23;2.60;;;12.80;99.90;;;;;;5005940;28;20188;-74
2022/06/10 01:13:33;;;;;;;7.67;2.83;;;12.80;99.90;;;;;;5029443;28;20235;-74
2022/06/10 01:16:41;;;;;;;4.23;2.50;;;12.80;99.90;;;;;;4986188;28;20268;-74
2022/06/10 01:20:03;;;;;;;6.03;2.60;;;12.70;99.90;;;;;;5008957;28;20210;-74
2022/06/10 01:23:09;;;;;;;3.90;2.60;;;12.70;99.90;;;;;;5007727;28;20284;-74
2022/06/10 01:26:18;;;;;;;4.13;2.40;;;12.70;99.90;;;;;;5005944;28;20207;-73
2022/06/10 01:29:33;;;;;;;5.20;2.60;;;12.60;99.90;;;;;;5006407;28;20204;-74
2022/06/10 01:32:40;;;;;;;3.83;2.60;;;12.60;99.90;;;;;;4997782;28;20203;-74
2022/06/10 01:35:44;;;;;;;6.03;3.10;;;12.60;99.90;;;;;;5008804;28;20192;-73
2022/06/10 01:38:53;;;;;;;5.27;2.57;;;12.50;99.90;;;;;;5002433;28;20623;-73
2022/06/10 01:42:08;;;;;;;5.37;2.43;;;12.50;99.90;;;;;;5000090;28;20193;-74
2022/06/10 01:44:59;;;;;;;10.03;2.90;;;12.40;99.90;;;;;;5010132;28;20244;-74
2022/06/10 01:48:07;;;;;;;7.13;2.77;;;12.40;99.90;;;;;;5010086;28;20196;-74
2022/06/10 01:50:55;;;;;;;4.67;2.90;;;12.40;99.90;;;;;;5004520;28;20205;-73
2022/06/10 01:53:48;;;;;;;6.47;2.83;;;12.40;99.90;;;;;;5003093;28;20311;-73
2022/06/10 01:56:39;;;;;;;6.90;3.03;;;12.30;99.90;;;;;;5007310;28;20172;-74
2022/06/10 01:59:30;;;;;;;4.80;2.60;;;12.30;99.90;;;;;;5009011;28;20231;-74
2022/06/10 02:02:29;;;;;;;7.93;3.03;;;12.30;99.90;;;;;;5005649;28;20228;-74
2022/06/10 02:05:19;;;;;;;8.63;2.97;;;12.30;99.90;;;;;;5009808;28;20207;-74
2022/06/10 02:08:30;;;;;;;5.60;2.73;;;12.30;99.90;;;;;;5011495;28;20281;-74
2022/06/10 02:11:18;;;;;;;6.90;2.90;;;12.20;99.90;;;;;;5011076;28;20322;-74
2022/06/10 02:14:10;;;;;;;4.83;2.73;;;12.20;99.90;;;;;;5001544;28;20200;-74
2022/06/10 02:16:56;;;;;;;3.03;2.27;;;12.20;99.90;;;;;;5012048;28;20246;-73
2022/06/10 02:19:50;;;;;;;5.00;2.83;;;12.10;99.90;;;;;;5002668;28;20706;-74
2022/06/10 02:22:42;;;;;;;5.70;2.60;;;12.10;99.90;;;;;;5011376;28;20207;-74
2022/06/10 02:25:37;;;;;;;3.57;2.40;;;12.10;99.90;;;;;;5008610;28;20273;-74
2022/06/10 02:28:51;;;;;;;5.33;2.63;;;12.10;99.90;;;;;;5002481;28;20235;-73
2022/06/10 02:31:41;;;;;;;5.93;2.90;;;12.00;99.90;;;;;;5006965;28;20179;-74
2022/06/10 02:34:29;;;;;;;6.60;2.70;;;12.00;99.90;;;;;;5007360;28;20204;-74
2022/06/10 02:37:23;;;;;;;7.90;2.50;;;12.00;99.90;;;;;;5012897;28;20191;-74
2022/06/10 02:40:14;;;;;;;8.53;2.53;;;11.90;99.90;;;;;;5008236;28;20200;-74
2022/06/10 02:43:21;;;;;;;6.50;2.90;;;11.90;99.90;;;;;;5003214;28;20224;-74
2022/06/10 02:46:10;;;;;;;4.53;2.57;;;11.80;99.90;;;;;;5009029;28;20200;-74
2022/06/10 02:49:03;;;;;;;3.23;2.60;;;11.80;99.90;;;;;;5011692;28;20236;-73
2022/06/10 02:51:49;;;;;;;3.60;2.43;;;11.80;99.90;;;;;;5007885;28;20219;-73
2022/06/10 02:54:37;;;;;;;6.97;3.13;;;11.80;99.90;;;;;;5018522;28;20666;-73
2022/06/10 03:01:11;;;;;;;5.80;2.70;;;11.80;99.90;;;;;;5002525;28;20196;-73
2022/06/10 03:03:55;;;;;;;6.00;2.80;;;11.70;99.90;;;;;;5009602;28;20215;-74
2022/06/10 03:07:02;;;;;;;4.23;2.40;;;11.70;99.90;;;;;;5004660;28;20184;-74
2022/06/10 03:10:28;;;;;;;3.33;2.23;;;11.70;99.90;;;;;;4983491;28;20191;-74
2022/06/10 03:13:36;;;;;;;11.20;2.63;;;11.70;99.90;;;;;;5004047;28;20205;-74
2022/06/10 03:17:03;;;;;;;4.63;2.23;;;11.70;99.90;;;;;;4998590;28;20215;-74
2022/06/10 03:20:02;;;;;;;9.53;2.80;;;11.70;99.90;;;;;;5010564;28;20252;-73
2022/06/10 03:23:13;;;;;;;6.73;2.63;;;11.70;99.90;;;;;;5008885;28;20277;-74
2022/06/10 03:26:00;;;;;;;4.63;2.30;;;11.60;99.90;;;;;;5008144;28;20235;-74
2022/06/10 03:28:57;;;;;;;6.47;2.40;;;11.60;99.90;;;;;;5013553;28;20238;-74
2022/06/10 03:31:46;;;;;;;4.00;2.17;;;11.60;99.90;;;;;;5017979;28;20780;-73
2022/06/10 03:34:35;;;;;;;8.60;2.73;;;11.60;99.90;;;;;;5014797;28;20233;-73
2022/06/10 03:37:22;;;;;;;7.53;2.77;;;11.60;99.90;;;;;;5005901;28;20179;-73
2022/06/10 03:40:07;;;;;;;3.57;2.83;;;11.60;99.90;;;;;;5003002;28;20188;-73
2022/06/10 03:42:56;;;;;;;6.67;2.67;;;11.60;99.90;;;;;;5000411;28;20224;-73
2022/06/10 03:45:46;;;;;;;6.67;2.83;;;11.60;99.90;;;;;;5002221;28;20287;-74
2022/06/10 03:48:35;;;;;;;5.00;2.60;;;11.60;99.90;;;;;;5001883;28;20292;-74
2022/06/10 03:51:20;;;;;;;5.03;2.70;;;11.60;99.90;;;;;;5012907;28;20194;-74
2022/06/10 03:54:05;;;;;;;5.27;2.73;;;11.60;99.90;;;;;;5002352;28;20235;-74
2022/06/10 03:56:52;;;;;;;7.43;2.57;;;11.60;99.90;;;;;;5006364;28;20706;-74
2022/06/10 03:59:36;;;;;;;5.07;2.93;;;11.60;99.90;;;;;;5003602;28;20199;-74
2022/06/10 04:02:20;;;;;;;8.85;3.50;;;11.60;99.90;;;;;;4991438;28;20415;-74
2022/06/10 04:05:05;;;;;;;9.35;4.03;;;11.70;99.90;;;;;;4999698;28;20770;-74
2022/06/10 04:07:50;;;;;;;5.20;3.07;;;11.80;99.90;;;;;;5014098;28;20246;-75
2022/06/10 04:10:34;;;;;;;5.57;2.87;;;11.70;99.90;;;;;;5014364;28;20687;-75
2022/06/10 04:13:20;;;;;;;7.20;3.03;;;11.80;99.90;;;;;;5014687;28;20211;-75
2022/06/10 04:16:04;;;;;;;7.87;2.73;;;11.80;99.90;;;;;;5014237;28;20204;-75
2022/06/10 04:18:48;;;;;;;9.17;3.10;;;11.80;99.90;;;;;;5000211;28;20248;-75
2022/06/10 04:21:32;;;;;;;8.93;3.07;;;11.80;99.90;;;;;;5008483;28;20276;-74
2022/06/10 04:24:16;;;;;;;6.70;3.10;;;11.90;99.90;;;;;;5003596;28;20551;-75
2022/06/10 04:27:02;;;;;;;5.63;2.87;;;11.90;99.90;;;;;;5003038;28;20235;-74
2022/06/10 04:29:46;;;;;;;11.93;3.03;;;11.90;99.90;;;;;;5008092;28;20256;-75
2022/06/10 04:32:30;;;;;;;6.77;3.17;;;12.00;99.90;;;;;;5010438;28;20263;-74
2022/06/10 04:35:14;;;;;;;7.43;3.20;;;12.00;99.90;;;;;;5005758;28;20276;-75
2022/06/10 04:37:59;;;;;;;8.82;3.35;;;12.10;99.90;;;;;;5016745;28;20406;-74
2022/06/10 04:40:44;;;;;;;10.30;3.70;;;12.10;99.90;;;;;;5011654;28;20264;-72
2022/06/10 04:43:28;;;;;;;5.87;3.50;;;12.20;99.90;;;;;;5004631;28;20234;-74
2022/06/10 04:46:35;;;;;;;8.67;4.07;;;12.20;99.90;;;;;;5008268;28;20247;-74
2022/06/10 04:49:19;;;;;;;9.53;3.50;;;12.20;99.90;;;;;;5018366;28;20184;-74
2022/06/10 04:52:04;;;;;;;9.40;4.00;;;12.30;99.90;;;;;;5010377;28;20262;-74
2022/06/10 04:54:48;;;;;;;9.37;3.73;;;12.30;99.90;;;;;;5005651;28;20200;-75
2022/06/10 04:57:33;;;;;;;8.80;4.13;;;12.40;99.90;;;;;;5002247;28;20197;-74
2022/06/10 05:00:25;;;;;;;9.53;4.37;;;12.50;99.90;;;;;;5000903;28;20278;-75
2022/06/10 05:03:10;;;;;;;12.93;4.27;;;12.50;99.90;;;;;;5017649;28;20219;-74
2022/06/10 05:05:54;;;;;;;6.23;3.90;;;12.50;99.90;;;;;;5014977;28;20200;-74
2022/06/10 05:08:38;;;;;;;10.07;4.20;;;12.60;99.90;;;;;;4995924;28;20197;-73
2022/06/10 05:11:22;;;;;;;21.57;4.23;;;12.70;99.90;;;;;;5001781;28;20256;-74
2022/06/10 05:14:06;;;;;;;6.40;3.93;;;12.70;99.90;;;;;;5006083;28;20188;-74
2022/06/10 05:16:50;;;;;;;13.10;4.70;;;12.80;99.90;;;;;;5018800;28;20192;-75
2022/06/10 05:19:35;;;;;;;8.67;4.13;;;12.90;99.90;;;;;;5000645;28;20306;-75
2022/06/10 05:22:19;;;;;;;9.23;4.23;;;13.00;99.90;;;;;;5004776;28;20220;-75
2022/06/10 05:25:04;;;;;;;9.03;4.20;;;13.10;99.90;;;;;;5003828;28;20214;-75
2022/06/10 05:27:48;;;;;;;10.77;4.23;;;13.20;99.90;;;;;;5008975;28;20179;-75
2022/06/10 05:30:34;;;;;;;8.00;4.70;;;13.30;99.90;;;;;;5009421;28;20191;-76
2022/06/10 05:33:18;;;;;;;11.23;4.73;;;13.40;99.90;;;;;;5001968;28;20215;-75
2022/06/10 05:36:03;;;;;;;12.07;5.93;;;13.50;99.90;;;;;;5003294;28;20430;-75
2022/06/10 05:38:48;;;;;;;7.57;4.77;;;13.60;99.90;;;;;;5004144;28;20743;-75
2022/06/10 05:44:41;;;;;;;9.37;4.90;;;13.80;99.90;;;;;;4999189;28;20208;-74
2022/06/10 05:47:30;;;;;;;9.70;4.90;;;13.90;99.90;;;;;;5009775;28;20192;-74
2022/06/10 05:50:17;;;;;;;11.10;5.73;;;14.00;99.90;;;;;;5005320;28;20243;-74
2022/06/10 05:53:04;;;;;;;13.47;4.57;;;14.10;99.90;;;;;;5012690;28;20305;-75
2022/06/10 05:55:48;;;;;;;9.03;4.47;;;14.20;99.90;;;;;;5002548;28;20192;-75
2022/06/10 05:58:32;;;;;;;7.23;4.57;;;14.40;99.90;;;;;;4998523;28;20232;-75
2022/06/10 06:01:16;;;;;;;9.97;4.40;;;14.50;99.90;;;;;;5012244;28;20183;-74
2022/06/10 06:04:00;;;;;;;8.10;4.77;;;14.60;99.90;;;;;;5010181;28;20207;-75
2022/06/10 06:06:45;;;;;;;5.97;4.70;;;14.70;99.90;;;;;;5007979;28;20192;-75
2022/06/10 06:09:29;;;;;;;9.00;4.83;;;14.80;99.90;;;;;;5017712;28;20279;-75
2022/06/10 06:12:15;;;;;;;12.83;5.70;;;14.90;99.90;;;;;;5001725;28;20228;-75
2022/06/10 06:14:59;;;;;;;11.87;5.20;;;15.00;99.90;;;;;;5002703;28;20197;-75
2022/06/10 06:17:43;;;;;;;7.27;4.93;;;15.10;99.90;;;;;;5014536;28;20199;-75
2022/06/10 06:20:27;;;;;;;9.20;5.13;;;15.20;99.90;;;;;;5013438;28;20195;-75
2022/06/10 06:23:11;;;;;;;16.50;4.67;;;15.30;99.90;;;;;;5013799;28;20266;-75
2022/06/10 06:25:55;;;;;;;8.50;4.93;;;15.40;99.90;;;;;;5008183;28;20183;-75
2022/06/10 06:28:40;;;;;;;7.90;5.70;;;15.50;99.90;;;;;;5017783;28;20223;-75
2022/06/10 06:31:25;;;;;;;13.50;5.23;;;15.60;99.90;;;;;;5009376;28;20203;-75
2022/06/10 06:34:09;;;;;;;10.47;5.00;;;15.70;99.90;;;;;;5010155;28;20214;-75
2022/06/10 06:36:55;;;;;;;14.67;5.10;;;15.90;99.90;;;;;;5007458;28;20191;-75
2022/06/10 06:39:40;;;;;;;7.37;5.10;;;16.00;99.90;;;;;;5007686;28;20238;-75
2022/06/10 06:42:24;;;;;;;10.70;5.90;;;16.20;99.90;;;;;;5015170;28;20240;-75
2022/06/10 06:45:10;;;;;;;10.93;6.30;;;16.30;99.90;;;;;;5000471;28;20208;-75
2022/06/10 06:47:54;;;;;;;14.30;6.70;;;16.50;99.90;;;;;;4998730;28;20196;-75
2022/06/10 06:50:45;;;;;;;11.83;6.87;;;16.60;99.90;;;;;;5016011;28;20194;-75
2022/06/10 06:53:33;;;;;;;8.60;6.10;;;16.70;99.90;;;;;;5009042;28;20220;-75
2022/06/10 06:56:17;;;;;;;17.30;6.50;;;16.80;99.90;;;;;;5002375;28;20684;-74
2022/06/10 06:59:02;;;;;;;9.93;6.00;;;16.80;99.90;;;;;;5017110;28;20227;-75
2022/06/10 07:01:46;;;;;;;16.50;6.30;;;17.00;99.90;;;;;;5003510;28;20579;-75
2022/06/10 07:04:30;;;;;;;10.27;6.83;;;17.10;99.90;;;;;;5016795;28;20184;-75
2022/06/10 07:07:15;;;;;;;13.70;6.40;;;17.10;99.90;;;;;;5007297;28;20211;-75
2022/06/10 07:09:59;;;;;;;12.47;5.67;;;17.20;99.90;;;;;;5003755;28;20196;-75
2022/06/10 07:12:44;;;;;;;8.73;5.43;;;17.30;99.90;;;;;;5000229;28;20247;-75
2022/06/10 07:15:28;;;;;;;11.00;5.67;;;17.40;99.90;;;;;;5009653;28;20224;-75
2022/06/10 07:18:12;;;;;;;8.83;5.50;;;17.50;99.90;;;;;;5012441;28;20248;-75
2022/06/10 07:20:56;;;;;;;11.07;5.47;;;17.60;99.90;;;;;;5003394;28;20242;-75
2022/06/10 07:23:40;;;;;;;12.67;5.27;;;17.70;99.90;;;;;;4996495;28;20248;-75
2022/06/10 07:26:25;;;;;;;10.97;5.10;;;17.80;99.90;;;;;;5011328;28;20233;-75
2022/06/10 07:29:10;;;;;;;9.90;5.50;;;17.80;99.90;;;;;;5017137;28;20248;-75
2022/06/10 07:31:54;;;;;;;9.87;5.17;;;17.80;99.90;;;;;;5014511;28;20219;-75
2022/06/10 07:34:39;;;;;;;10.50;5.80;;;17.90;99.90;;;;;;5014619;28;20196;-74
2022/06/10 07:37:23;;;;;;;13.13;5.90;;;18.00;99.90;;;;;;5009821;28;20230;-75
2022/06/10 07:41:56;;;;;;;10.68;5.43;;;18.00;99.90;;;;;;5009861;28;20203;-75
2022/06/10 07:43:13;;;;;;;10.97;5.10;;;18.10;99.90;;;;;;5010028;28;20233;-75
2022/06/10 07:45:58;;;;;;;11.80;5.13;;;18.10;99.90;;;;;;5005730;28;20180;-75
2022/06/10 07:48:43;;;;;;;13.07;5.20;;;18.20;99.90;;;;;;5012967;28;20215;-75
2022/06/10 07:51:28;;;;;;;8.73;4.20;;;18.30;99.90;;;;;;5015211;28;20180;-75
2022/06/10 07:54:12;;;;;;;15.33;5.40;;;18.30;99.90;;;;;;5018181;28;20246;-75
2022/06/10 07:56:56;;;;;;;9.00;4.47;;;18.40;99.90;;;;;;5012714;28;20260;-75
2022/06/10 07:59:42;;;;;;;7.80;4.13;;;18.40;99.90;;;;;;5014155;28;20215;-75
2022/06/10 08:02:26;;;;;;;9.80;4.73;;;18.50;99.90;;;;;;5007836;28;20704;-75
2022/06/10 08:05:14;;;;;;;11.57;4.40;;;18.60;99.90;;;;;;5021757;28;20547;-75
2022/06/10 08:07:58;;;;;;;11.83;3.77;;;18.70;99.90;;;;;;5006450;28;20586;-75
2022/06/10 08:10:43;;;;;;;9.73;4.40;;;18.70;99.90;;;;;;5015536;28;20200;-75
2022/06/10 08:13:29;;;;;;;8.10;3.60;;;18.80;99.90;;;;;;5007407;28;20207;-75
2022/06/10 08:16:14;;;;;;;7.73;3.13;;;18.80;99.90;;;;;;5004119;28;20192;-75
2022/06/10 08:18:58;;;;;;;5.17;2.40;;;18.90;99.90;;;;;;5026036;28;20245;-75
2022/06/10 08:24:45;;;;;;;9.23;2.03;;;19.00;99.90;;;;;;5014664;28;20236;-75
2022/06/10 08:27:29;;;;;;;10.73;1.90;;;19.00;99.90;;;;;;5009187;28;20200;-75
2022/06/10 08:30:15;;;;;;;6.60;1.60;;;19.00;99.90;;;;;;5008176;28;20204;-74
2022/06/10 08:33:03;;;;;;;6.30;1.67;;;18.90;99.90;;;;;;5013210;28;20248;-74
2022/06/10 08:35:50;;;;;;;6.20;1.80;;;18.90;99.90;;;;;;5009721;28;20293;-76
2022/06/10 08:38:34;;;;;;;10.97;2.20;;;18.90;99.90;;;;;;5007646;28;20266;-75
2022/06/10 08:41:51;;;;;;;7.82;1.50;;;18.90;99.90;;;;;;4998078;28;20192;-74
2022/06/10 08:44:49;;;;;;;7.80;1.80;;;18.80;99.90;;;;;;4983791;28;20244;-75
2022/06/10 08:47:52;;;;;;;4.70;1.23;;;18.80;99.90;;;;;;5005856;28;20188;-75
2022/06/10 08:50:49;;;;;;;6.23;1.40;;;18.90;99.90;;;;;;5005625;28;20246;-75
2022/06/10 08:53:51;;;;;;;5.47;1.80;;;18.90;99.90;;;;;;5012035;28;20222;-75
2022/06/10 08:56:40;;;;;;;3.43;1.53;;;18.90;99.90;;;;;;5007316;28;20183;-75
2022/06/10 08:59:38;;;;;;;5.63;1.42;;;19.00;99.90;;;;;;5008859;28;20219;-75
2022/06/10 09:02:34;;;;;;;11.33;1.80;;;18.90;99.90;;;;;;5005430;28;20582;-75
2022/06/10 09:05:30;;;;;;;7.50;2.07;;;18.90;99.90;;;;;;5010306;28;20198;-75
2022/06/10 09:08:30;;;;;;;7.87;2.50;;;18.80;99.90;;;;;;5008592;28;20204;-75
2022/06/10 09:11:47;;;;;;;12.30;2.60;;;18.80;99.90;;;;;;5005612;28;20204;-75
2022/06/10 09:14:32;;;;;;;4.27;2.37;;;18.80;99.90;;;;;;5013128;28;20247;-75
2022/06/10 09:17:37;;;;;;;5.37;2.47;;;18.80;99.90;;;;;;5005127;28;20195;-75
2022/06/10 09:20:39;;;;;;;8.90;2.67;;;18.80;99.90;;;;;;4995719;28;20204;-75
2022/06/10 09:23:42;;;;;;;5.10;2.17;;;18.80;99.90;;;;;;4999576;28;20212;-75
2022/06/10 09:26:42;;;;;;;9.10;2.67;;;18.70;99.90;;;;;;5022195;28;20182;-75
2022/06/10 09:29:27;;;;;;;5.22;1.85;;;18.60;99.90;;;;;;5001199;28;20304;-75
2022/06/10 09:32:19;;;;;;;9.00;1.97;;;18.60;99.90;;;;;;5006878;28;20216;-75
2022/06/10 09:35:26;;;;;;;4.30;1.77;;;18.60;99.90;;;;;;5005000;28;20247;-75
2022/06/10 09:38:36;;;;;;;5.77;1.80;;;18.50;99.90;;;;;;5000553;28;20203;-75
2022/06/10 09:41:26;;;;;;;3.73;1.90;;;18.40;99.90;;;;;;5004987;28;20250;-75
2022/06/10 09:44:35;;;;;;;2.53;1.80;;;18.30;99.90;;;;;;5005626;28;20209;-75
2022/06/10 09:48:12;;;;;;;6.93;2.60;;;18.30;99.90;;;;;;5003865;28;20263;-74
2022/06/10 09:51:07;;;;;;;6.40;2.53;;;18.30;99.90;;;;;;4933163;28;20178;-74
2022/06/10 09:54:10;;;;;;;7.07;2.40;;;18.30;99.90;;;;;;5004973;28;20259;-74
2022/06/10 09:57:33;;;;;;;3.90;2.10;;;18.30;99.90;;;;;;5003376;28;20738;-74
2022/06/10 10:00:20;;;;;;;7.50;2.27;;;18.40;99.90;;;;;;4998529;28;20188;-74
2022/06/10 10:03:28;;;;;;;4.20;2.13;;;18.50;99.90;;;;;;5012059;28;20311;-74
2022/06/10 10:06:39;;;;;;;8.40;2.45;;;18.50;99.90;;;;;;5010689;28;20255;-74
2022/06/10 10:09:47;;;;;;;5.77;1.83;;;18.60;99.90;;;;;;5005350;28;20188;-74
2022/06/10 10:12:46;;;;;;;5.13;2.27;;;18.60;99.90;;;;;;5000160;28;20266;-75
2022/06/10 10:15:40;;;;;;;5.03;2.10;;;18.60;99.90;;;;;;5013488;28;20267;-74
2022/06/10 10:19:06;;;;;;;7.13;2.43;;;18.70;99.90;;;;;;4997284;28;20288;-75
2022/06/10 10:22:31;;;;;;;8.60;2.37;;;18.80;99.90;;;;;;5000102;28;20225;-75
2022/06/10 10:25:19;;;;;;;9.37;2.33;;;18.90;99.90;;;;;;5016975;28;20188;-75
2022/06/10 10:28:34;;;;;;;7.30;2.38;;;18.90;99.90;;;;;;5004145;28;20265;-76
2022/06/10 10:31:23;;;;;;;8.07;2.60;;;18.90;99.90;;;;;;4999818;28;20195;-74
2022/06/10 10:34:19;;;;;;;8.98;2.67;;;19.00;99.90;;;;;;5001573;28;20196;-76
2022/06/10 10:37:18;;;;;;;7.65;2.42;;;19.00;99.90;;;;;;5005278;28;20224;-74
2022/06/10 10:40:14;;;;;;;5.88;2.30;;;19.10;99.90;;;;;;5014286;28;20269;-75
2022/06/10 10:43:04;;;;;;;9.80;2.20;;;19.10;99.90;;;;;;5002911;28;20215;-75
2022/06/10 10:45:59;;;;;;;5.32;2.25;;;19.20;99.90;;;;;;5000508;28;20192;-74
2022/06/10 10:48:47;;;;;;;6.85;2.42;;;19.20;99.90;;;;;;5001592;28;20196;-74
2022/06/10 10:51:40;;;;;;;8.05;2.63;;;19.20;99.90;;;;;;5010592;28;20244;-74
2022/06/10 10:54:33;;;;;;;3.80;2.10;;;19.30;99.90;;;;;;4998921;28;20183;-74
2022/06/10 10:57:34;;;;;;;5.45;2.08;;;19.40;99.90;;;;;;5003951;28;20199;-74
2022/06/10 11:00:33;;;;;;;11.95;2.70;;;19.40;99.90;;;;;;5004973;28;20196;-74
2022/06/10 11:03:42;;;;;;;7.32;2.60;;;19.50;99.90;;;;;;4995776;28;20212;-74
2022/06/10 11:06:33;;;;;;;5.68;2.40;;;19.60;99.90;;;;;;4991573;28;20608;-74
2022/06/10 11:09:22;;;;;;;7.10;2.47;;;19.60;99.90;;;;;;5002882;28;20188;-74
2022/06/10 11:12:15;;;;;;;7.38;2.85;;;19.60;99.90;;;;;;5007090;28;20255;-74
2022/06/10 11:15:06;;;;;;;9.27;2.72;;;19.60;99.90;;;;;;5006069;28;20208;-74
2022/06/10 11:17:50;;;;;;;4.65;2.10;;;19.60;99.90;;;;;;4994407;28;20619;-75
2022/06/10 11:20:38;;;;;;;5.57;2.35;;;19.60;99.90;;;;;;4995587;28;20188;-74
2022/06/10 11:23:26;;;;;;;9.63;2.05;;;19.60;99.90;;;;;;4999226;28;20215;-75
2022/06/10 11:26:17;;;;;;;6.68;2.30;;;19.60;99.90;;;;;;5007264;28;20264;-74
2022/06/10 11:29:07;;;;;;;9.02;2.60;;;19.50;99.90;;;;;;5003530;28;20192;-74
2022/06/10 11:32:00;;;;;;;7.25;2.67;;;19.50;99.90;;;;;;4994567;28;20235;-74
2022/06/10 11:34:58;;;;;;;4.20;1.80;;;19.50;99.90;;;;;;5003427;28;20243;-74
2022/06/10 11:37:45;;;;;;;6.40;2.28;;;19.70;99.90;;;;;;5004322;28;20602;-74
2022/06/10 11:40:38;;;;;;;6.50;1.83;;;19.80;99.90;;;;;;5006148;28;20188;-74
2022/06/10 11:43:38;;;;;;;5.70;1.75;;;19.90;99.90;;;;;;5003465;28;20294;-73
2022/06/10 11:46:47;;;;;;;6.97;2.15;;;20.00;99.90;;;;;;5008078;28;20292;-74
2022/06/10 11:49:39;;;;;;;4.25;1.88;;;20.10;99.90;;;;;;5003460;28;20238;-74
2022/06/10 11:52:31;;;;;;;8.82;2.30;;;20.30;99.90;;;;;;5011220;28;20220;-74
2022/06/10 11:55:19;;;;;;;5.85;1.90;;;20.40;99.90;;;;;;5000024;28;20187;-74
2022/06/10 12:01:19;;;;;;;8.15;1.60;;;20.70;99.90;;;;;;5004968;28;20207;-74
2022/06/10 12:04:13;;;;;;;3.58;1.65;;;20.80;99.90;;;;;;5003045;28;20221;-75
2022/06/10 12:07:02;;;;;;;8.52;1.90;;;20.70;99.90;;;;;;4999902;28;20232;-75
2022/06/10 12:09:50;;;;;;;5.72;2.00;;;20.70;99.90;;;;;;5010072;28;20200;-72
2022/06/10 12:12:40;;;;;;;5.13;2.03;;;20.60;99.90;;;;;;5008466;28;20588;-72
2022/06/10 12:15:32;;;;;;;4.28;1.70;;;20.60;99.90;;;;;;5004590;28;20197;-73
2022/06/10 12:18:17;;;;;;;7.22;1.80;;;20.60;99.90;;;;;;4999733;28;20256;-72
2022/06/10 12:21:04;;;;;;;5.30;1.83;;;20.60;99.90;;;;;;5006665;28;20804;-72
2022/06/10 12:23:49;;;;;;;5.35;1.90;;;20.70;99.90;;;;;;5005534;28;20216;-73
2022/06/10 12:26:47;;;;;;;7.72;2.05;;;20.70;99.90;;;;;;5002896;28;20660;-73
2022/06/10 12:29:44;;;;;;;7.93;2.10;;;20.70;99.90;;;;;;5010296;28;20191;-73
2022/06/10 12:32:54;;;;;;;7.45;2.30;;;20.70;99.90;;;;;;5012552;28;20238;-73
2022/06/10 12:35:42;;;;;;;9.98;2.30;;;20.70;99.90;;;;;;5006499;28;20192;-73
2022/06/10 12:38:35;;;;;;;6.78;2.55;;;20.70;99.90;;;;;;5010288;28;20278;-73
2022/06/10 12:41:25;;;;;;;10.45;2.63;;;20.70;99.90;;;;;;5000691;28;20269;-73
2022/06/10 12:44:15;;;;;;;4.80;2.42;;;20.70;99.90;;;;;;5007949;28;20239;-73
2022/06/10 12:47:02;;;;;;;9.55;2.92;;;20.70;99.90;;;;;;5007996;28;20235;-73
2022/06/10 12:49:54;;;;;;;7.75;2.55;;;20.80;99.90;;;;;;5006487;28;20252;-72
2022/06/10 12:52:58;;;;;;;7.82;2.58;;;20.80;99.90;;;;;;5008890;28;20220;-73
2022/06/10 12:55:45;;;;;;;9.43;2.70;;;20.80;99.90;;;;;;5019263;28;20192;-73
2022/06/10 12:58:38;;;;;;;6.43;2.75;;;20.80;99.90;;;;;;5009536;28;20247;-73
2022/06/10 13:01:28;;;;;;;13.52;2.88;;;20.90;99.90;;;;;;5002263;28;20212;-73
2022/06/10 13:04:22;;;;;;;4.63;2.45;;;21.00;99.90;;;;;;5018372;28;20251;-73
2022/06/10 13:07:30;;;;;;;8.70;2.70;;;21.10;99.90;;;;;;5004975;28;20256;-73
2022/06/10 13:10:30;;;;;;;9.00;3.13;;;21.20;99.90;;;;;;5010138;28;20292;-73
2022/06/10 13:13:22;;;;;;;10.52;2.92;;;21.20;99.90;;;;;;5015861;28;20251;-73
2022/06/10 13:16:24;;;;;;;10.82;3.17;;;21.30;99.90;;;;;;5008614;28;20232;-73
2022/06/10 13:19:33;;;;;;;7.22;2.70;;;21.40;99.90;;;;;;5003261;28;20707;-73
2022/06/10 13:22:20;;;;;;;7.40;2.70;;;21.50;99.90;;;;;;5011383;28;20278;-74
2022/06/10 13:25:07;;;;;;;7.13;3.10;;;21.50;99.90;;;;;;5007006;28;20215;-73
2022/06/10 13:27:52;;;;;;;10.18;3.28;;;21.70;99.90;;;;;;5005510;28;20268;-74
2022/06/10 13:30:36;;;;;;;8.82;3.40;;;21.80;99.90;;;;;;5004419;28;20223;-74
2022/06/10 13:33:21;;;;;;;13.13;3.40;;;21.90;99.90;;;;;;5009354;28;20216;-74
2022/06/10 13:36:05;;;;;;;8.55;3.38;;;21.90;99.90;;;;;;5008293;28;20189;-74
2022/06/10 13:38:53;;;;;;;8.82;3.35;;;21.90;99.90;;;;;;5007031;28;20716;-74
2022/06/10 13:41:53;;;;;;;8.60;3.45;;;21.90;99.90;;;;;;5018878;28;20192;-74
2022/06/10 13:44:44;;;;;;;9.40;4.15;;;21.90;99.90;;;;;;4998108;28;20187;-74
2022/06/10 13:47:32;;;;;;;12.18;3.83;;;21.90;99.90;;;;;;5006371;28;20188;-74
2022/06/10 13:50:58;;;;;;;6.00;3.47;;;21.90;99.90;;;;;;5009995;28;20192;-74
2022/06/10 13:53:56;;;;;;;9.00;2.78;;;22.00;99.90;;;;;;5003670;28;20284;-73
2022/06/10 13:56:42;;;;;;;9.15;2.92;;;22.10;99.90;;;;;;5008326;28;20259;-74
2022/06/10 13:59:32;;;;;;;8.50;2.70;;;22.10;99.90;;;;;;5005226;28;20212;-74
2022/06/10 14:02:19;;;;;;;5.88;2.60;;;22.20;99.90;;;;;;5003412;28;20751;-74
2022/06/10 14:05:04;;;;;;;5.90;2.47;;;22.30;99.90;;;;;;5002287;28;20177;-74
2022/06/10 14:07:49;;;;;;;9.43;3.08;;;22.30;99.90;;;;;;5027891;28;20247;-74
2022/06/10 14:10:45;;;;;;;5.63;2.00;;;22.30;99.90;;;;;;5002927;28;20262;-73
2022/06/10 14:13:29;;;;;;;5.75;1.85;;;22.40;99.90;;;;;;5003626;28;20225;-74
2022/06/10 14:16:15;;;;;;;6.82;1.88;;;22.50;99.90;;;;;;5005447;28;20184;-73
2022/06/10 14:19:02;;;;;;;5.97;1.67;;;22.60;99.90;;;;;;5005849;28;20207;-73
2022/06/10 14:21:47;;;;;;;5.68;1.70;;;22.70;99.90;;;;;;5006999;28;20235;-74
2022/06/10 14:24:32;;;;;;;6.28;1.70;;;22.70;99.90;;;;;;4995668;28;20180;-74
2022/06/10 14:27:23;;;;;;;6.32;1.85;;;22.70;99.90;;;;;;5007515;28;20246;-73
2022/06/10 14:30:23;;;;;;;4.20;1.83;;;22.80;99.90;;;;;;5003531;28;20530;-74
2022/06/10 14:33:26;;;;;;;4.55;1.75;;;22.70;99.90;;;;;;5005399;28;20216;-74
2022/06/10 14:36:19;;;;;;;4.10;1.40;;;22.80;99.90;;;;;;5011283;28;20203;-74
2022/06/10 14:39:14;;;;;;;5.65;1.52;;;22.80;99.90;;;;;;5022067;28;20318;-74
2022/06/10 14:42:24;;;;;;;7.68;1.30;;;22.80;99.90;;;;;;5012183;28;20230;-74
2022/06/10 14:45:32;;;;;;;7.13;1.48;;;22.90;99.90;;;;;;4999519;28;20207;-74
2022/06/10 14:48:27;;;;;;;5.97;1.40;;;22.90;99.90;;;;;;4997945;28;20199;-74
2022/06/10 14:51:17;;;;;;;3.65;1.40;;;23.00;99.90;;;;;;5004887;28;20247;-75
2022/06/10 14:54:18;;;;;;;5.68;1.75;;;23.10;99.90;;;;;;5004371;28;20224;-74
2022/06/10 14:57:05;;;;;;;8.88;1.80;;;23.00;99.90;;;;;;5005234;28;20227;-74
2022/06/10 14:59:50;;;;;;;6.95;2.05;;;23.10;99.90;;;;;;5001204;28;20767;-74
2022/06/10 15:02:35;;;;;;;5.05;2.00;;;23.00;99.90;;;;;;5000290;28;20230;-74
2022/06/10 15:08:30;;;;;;;5.13;1.58;;;22.90;99.90;;;;;;4988025;28;20213;-75